Pagina principale
METAR-TAF:

METAR-TAF

Aeroporti :

Army Air Corps Middle Wallop

Middle Wallop, Inghilterra

latitudine: 51-09N, longitudine: 001-34W, altezza: 91 m

Osservazione

Il bollettino è stato emesso 1 ora e 11 minuti fa, alle 08:50 UTC
Vento 5 kt da ovest/nord-ovest
Temperature 14°C
Umidità 72%
Pressione 1008 hPa
Visibilità 10 km o più

METAR: EGVP 070850Z AUTO 29005KT 9999 FEW180/// 14/09 Q1008 RERA

Ora: 11:01 (10:01 UTC)


TAF: mancante

Osservazioni e previsioni meteorologiche di più di 4000 aeroporti (messaggi METAR e TAF).

Le stazioni disponibili sono rappresentate dai dischi gialli e rossi sulla carta.

Puntare il mouse per vedere il nome della stazione.

Clicca sopra per visualizzare le osservazioni e previsioni meteorologiche.

Per cambiare la mappa : fare clic sui pulsanti verdi con una croce nera per ingrandire, il pulsante verde con un trattino per diminuire, o sulla freccia verde per le mappe adiacenti.


METAR-TAF: